sensor_id;sensor_type;location;lat;lon;timestamp;P1;durP1;ratioP1;P2;durP2;ratioP2
9972;SDS011;5027;53.560;10.062;2023-03-01T00:00:08;26.77;;;9.10;;
9972;SDS011;5027;53.560;10.062;2023-03-01T00:02:39;17.17;;;9.17;;
9972;SDS011;5027;53.560;10.062;2023-03-01T00:05:06;21.33;;;10.07;;
9972;SDS011;5027;53.560;10.062;2023-03-01T00:07:33;16.90;;;9.23;;
9972;SDS011;5027;53.560;10.062;2023-03-01T00:10:00;24.70;;;9.77;;
9972;SDS011;5027;53.560;10.062;2023-03-01T00:12:26;19.23;;;9.27;;
9972;SDS011;5027;53.560;10.062;2023-03-01T00:14:53;14.83;;;9.47;;
9972;SDS011;5027;53.560;10.062;2023-03-01T00:17:20;15.80;;;9.23;;
9972;SDS011;5027;53.560;10.062;2023-03-01T00:19:47;14.93;;;9.10;;
9972;SDS011;5027;53.560;10.062;2023-03-01T00:22:13;16.67;;;9.57;;
9972;SDS011;5027;53.560;10.062;2023-03-01T00:24:40;18.90;;;8.67;;
9972;SDS011;5027;53.560;10.062;2023-03-01T00:27:07;14.07;;;8.80;;
9972;SDS011;5027;53.560;10.062;2023-03-01T00:29:33;15.20;;;9.17;;
9972;SDS011;5027;53.560;10.062;2023-03-01T00:32:00;18.33;;;9.17;;
9972;SDS011;5027;53.560;10.062;2023-03-01T00:34:27;21.20;;;9.83;;
9972;SDS011;5027;53.560;10.062;2023-03-01T00:36:53;22.83;;;10.23;;
9972;SDS011;5027;53.560;10.062;2023-03-01T00:39:20;19.53;;;9.70;;
9972;SDS011;5027;53.560;10.062;2023-03-01T00:41:47;16.17;;;8.83;;
9972;SDS011;5027;53.560;10.062;2023-03-01T00:44:13;21.10;;;9.63;;
9972;SDS011;5027;53.560;10.062;2023-03-01T00:46:40;15.17;;;8.73;;
9972;SDS011;5027;53.560;10.062;2023-03-01T00:49:07;13.47;;;8.67;;
9972;SDS011;5027;53.560;10.062;2023-03-01T00:51:33;13.23;;;8.60;;
9972;SDS011;5027;53.560;10.062;2023-03-01T00:54:01;18.90;;;9.43;;
9972;SDS011;5027;53.560;10.062;2023-03-01T00:56:28;17.23;;;9.30;;
9972;SDS011;5027;53.560;10.062;2023-03-01T00:58:56;13.97;;;8.70;;
9972;SDS011;5027;53.560;10.062;2023-03-01T01:01:25;19.07;;;9.50;;
9972;SDS011;5027;53.560;10.062;2023-03-01T01:03:58;15.27;;;9.17;;
9972;SDS011;5027;53.560;10.062;2023-03-01T01:06:32;14.17;;;8.83;;
9972;SDS011;5027;53.560;10.062;2023-03-01T01:09:00;15.53;;;8.50;;
9972;SDS011;5027;53.560;10.062;2023-03-01T01:11:28;13.70;;;8.97;;
9972;SDS011;5027;53.560;10.062;2023-03-01T01:13:56;16.67;;;8.37;;
9972;SDS011;5027;53.560;10.062;2023-03-01T01:16:23;18.10;;;8.80;;
9972;SDS011;5027;53.560;10.062;2023-03-01T01:18:51;19.47;;;9.70;;
9972;SDS011;5027;53.560;10.062;2023-03-01T01:21:20;16.17;;;9.80;;
9972;SDS011;5027;53.560;10.062;2023-03-01T01:23:49;20.70;;;9.47;;
9972;SDS011;5027;53.560;10.062;2023-03-01T01:26:21;16.83;;;9.03;;
9972;SDS011;5027;53.560;10.062;2023-03-01T01:28:49;16.27;;;9.40;;
9972;SDS011;5027;53.560;10.062;2023-03-01T01:31:16;19.77;;;9.43;;
9972;SDS011;5027;53.560;10.062;2023-03-01T01:33:44;13.23;;;8.57;;
9972;SDS011;5027;53.560;10.062;2023-03-01T01:36:12;17.03;;;9.87;;
9972;SDS011;5027;53.560;10.062;2023-03-01T01:38:38;17.60;;;9.20;;
9972;SDS011;5027;53.560;10.062;2023-03-01T01:41:05;15.67;;;8.80;;
9972;SDS011;5027;53.560;10.062;2023-03-01T01:43:34;17.70;;;9.47;;
9972;SDS011;5027;53.560;10.062;2023-03-01T01:49:00;21.60;;;9.67;;
9972;SDS011;5027;53.560;10.062;2023-03-01T01:51:31;15.77;;;9.30;;
9972;SDS011;5027;53.560;10.062;2023-03-01T01:54:06;16.97;;;8.93;;
9972;SDS011;5027;53.560;10.062;2023-03-01T01:56:38;21.37;;;8.87;;
9972;SDS011;5027;53.560;10.062;2023-03-01T01:59:08;16.70;;;9.23;;
9972;SDS011;5027;53.560;10.062;2023-03-01T02:01:36;14.97;;;9.50;;
9972;SDS011;5027;53.560;10.062;2023-03-01T02:04:03;15.13;;;9.37;;
9972;SDS011;5027;53.560;10.062;2023-03-01T02:06:33;20.40;;;9.70;;
9972;SDS011;5027;53.560;10.062;2023-03-01T02:09:14;17.83;;;8.80;;
9972;SDS011;5027;53.560;10.062;2023-03-01T02:11:43;14.77;;;8.93;;
9972;SDS011;5027;53.560;10.062;2023-03-01T02:14:10;14.17;;;8.43;;
9972;SDS011;5027;53.560;10.062;2023-03-01T02:16:37;17.27;;;8.63;;
9972;SDS011;5027;53.560;10.062;2023-03-01T02:19:04;14.47;;;8.93;;
9972;SDS011;5027;53.560;10.062;2023-03-01T02:24:21;20.60;;;10.03;;
9972;SDS011;5027;53.560;10.062;2023-03-01T02:26:55;15.97;;;9.43;;
9972;SDS011;5027;53.560;10.062;2023-03-01T02:29:22;14.83;;;8.70;;
9972;SDS011;5027;53.560;10.062;2023-03-01T02:31:51;12.73;;;8.27;;
9972;SDS011;5027;53.560;10.062;2023-03-01T02:34:22;17.63;;;9.20;;
9972;SDS011;5027;53.560;10.062;2023-03-01T02:36:57;15.93;;;9.30;;
9972;SDS011;5027;53.560;10.062;2023-03-01T02:39:32;12.87;;;8.47;;
9972;SDS011;5027;53.560;10.062;2023-03-01T02:42:09;14.03;;;9.30;;
9972;SDS011;5027;53.560;10.062;2023-03-01T02:44:39;15.23;;;9.10;;
9972;SDS011;5027;53.560;10.062;2023-03-01T02:47:05;17.77;;;9.23;;
9972;SDS011;5027;53.560;10.062;2023-03-01T02:49:33;15.17;;;8.30;;
9972;SDS011;5027;53.560;10.062;2023-03-01T02:55:31;13.77;;;9.00;;
9972;SDS011;5027;53.560;10.062;2023-03-01T02:57:50;19.10;;;8.93;;
9972;SDS011;5027;53.560;10.062;2023-03-01T03:00:19;11.00;;;7.43;;
9972;SDS011;5027;53.560;10.062;2023-03-01T03:02:50;14.07;;;9.00;;
9972;SDS011;5027;53.560;10.062;2023-03-01T03:05:29;16.00;;;8.70;;
9972;SDS011;5027;53.560;10.062;2023-03-01T03:07:58;16.10;;;8.23;;
9972;SDS011;5027;53.560;10.062;2023-03-01T03:10:31;15.60;;;8.67;;
9972;SDS011;5027;53.560;10.062;2023-03-01T03:13:03;17.33;;;8.70;;
9972;SDS011;5027;53.560;10.062;2023-03-01T03:15:34;17.43;;;8.93;;
9972;SDS011;5027;53.560;10.062;2023-03-01T03:18:03;14.17;;;9.10;;
9972;SDS011;5027;53.560;10.062;2023-03-01T03:20:30;18.77;;;8.80;;
9972;SDS011;5027;53.560;10.062;2023-03-01T03:22:58;17.23;;;9.30;;
9972;SDS011;5027;53.560;10.062;2023-03-01T03:25:26;14.93;;;9.87;;
9972;SDS011;5027;53.560;10.062;2023-03-01T03:27:54;14.53;;;8.63;;
9972;SDS011;5027;53.560;10.062;2023-03-01T03:30:25;18.73;;;8.57;;
9972;SDS011;5027;53.560;10.062;2023-03-01T03:32:56;12.97;;;8.23;;
9972;SDS011;5027;53.560;10.062;2023-03-01T03:35:28;12.23;;;8.20;;
9972;SDS011;5027;53.560;10.062;2023-03-01T03:38:01;17.13;;;8.77;;
9972;SDS011;5027;53.560;10.062;2023-03-01T03:43:01;17.17;;;8.43;;
9972;SDS011;5027;53.560;10.062;2023-03-01T03:45:28;15.73;;;9.23;;
9972;SDS011;5027;53.560;10.062;2023-03-01T03:47:55;17.97;;;9.10;;
9972;SDS011;5027;53.560;10.062;2023-03-01T03:50:21;17.67;;;8.83;;
9972;SDS011;5027;53.560;10.062;2023-03-01T03:52:48;12.23;;;8.23;;
9972;SDS011;5027;53.560;10.062;2023-03-01T03:55:15;16.57;;;8.87;;
9972;SDS011;5027;53.560;10.062;2023-03-01T03:57:46;11.83;;;8.30;;
9972;SDS011;5027;53.560;10.062;2023-03-01T04:00:18;16.53;;;8.30;;
9972;SDS011;5027;53.560;10.062;2023-03-01T04:02:47;19.50;;;7.97;;
9972;SDS011;5027;53.560;10.062;2023-03-01T04:05:15;18.20;;;8.67;;
9972;SDS011;5027;53.560;10.062;2023-03-01T04:07:44;14.57;;;9.10;;
9972;SDS011;5027;53.560;10.062;2023-03-01T04:10:12;20.80;;;9.43;;
9972;SDS011;5027;53.560;10.062;2023-03-01T04:12:42;15.43;;;9.03;;
9972;SDS011;5027;53.560;10.062;2023-03-01T04:15:10;17.17;;;8.57;;
9972;SDS011;5027;53.560;10.062;2023-03-01T04:17:44;13.60;;;8.40;;
9972;SDS011;5027;53.560;10.062;2023-03-01T04:20:16;15.87;;;8.40;;
9972;SDS011;5027;53.560;10.062;2023-03-01T04:23:12;14.03;;;8.43;;
9972;SDS011;5027;53.560;10.062;2023-03-01T04:25:42;12.73;;;8.17;;
9972;SDS011;5027;53.560;10.062;2023-03-01T04:28:12;13.57;;;8.20;;
9972;SDS011;5027;53.560;10.062;2023-03-01T04:30:38;12.33;;;7.63;;
9972;SDS011;5027;53.560;10.062;2023-03-01T04:33:05;15.13;;;9.40;;
9972;SDS011;5027;53.560;10.062;2023-03-01T04:35:34;43.63;;;18.50;;
9972;SDS011;5027;53.560;10.062;2023-03-01T04:38:02;41.93;;;16.87;;
9972;SDS011;5027;53.560;10.062;2023-03-01T04:40:30;15.93;;;9.50;;
9972;SDS011;5027;53.560;10.062;2023-03-01T04:42:56;18.20;;;9.30;;
9972;SDS011;5027;53.560;10.062;2023-03-01T04:45:23;19.00;;;9.90;;
9972;SDS011;5027;53.560;10.062;2023-03-01T04:47:50;12.80;;;8.40;;
9972;SDS011;5027;53.560;10.062;2023-03-01T04:50:18;16.37;;;8.40;;
9972;SDS011;5027;53.560;10.062;2023-03-01T04:52:49;15.97;;;8.60;;
9972;SDS011;5027;53.560;10.062;2023-03-01T04:55:16;14.60;;;8.50;;
9972;SDS011;5027;53.560;10.062;2023-03-01T04:57:42;20.27;;;8.87;;
9972;SDS011;5027;53.560;10.062;2023-03-01T05:00:10;13.93;;;8.90;;
9972;SDS011;5027;53.560;10.062;2023-03-01T05:02:54;19.63;;;8.90;;
9972;SDS011;5027;53.560;10.062;2023-03-01T05:05:24;14.30;;;8.27;;
9972;SDS011;5027;53.560;10.062;2023-03-01T05:08:11;13.93;;;7.77;;
9972;SDS011;5027;53.560;10.062;2023-03-01T05:10:50;13.87;;;8.80;;
9972;SDS011;5027;53.560;10.062;2023-03-01T05:13:18;18.43;;;8.67;;
9972;SDS011;5027;53.560;10.062;2023-03-01T05:15:56;16.30;;;8.67;;
9972;SDS011;5027;53.560;10.062;2023-03-01T05:18:25;16.60;;;8.63;;
9972;SDS011;5027;53.560;10.062;2023-03-01T05:21:01;15.90;;;9.17;;
9972;SDS011;5027;53.560;10.062;2023-03-01T05:23:30;18.37;;;8.30;;
9972;SDS011;5027;53.560;10.062;2023-03-01T05:25:58;18.97;;;8.60;;
9972;SDS011;5027;53.560;10.062;2023-03-01T05:28:26;19.03;;;8.87;;
9972;SDS011;5027;53.560;10.062;2023-03-01T05:30:54;16.63;;;9.47;;
9972;SDS011;5027;53.560;10.062;2023-03-01T05:33:21;16.73;;;8.67;;
9972;SDS011;5027;53.560;10.062;2023-03-01T05:35:49;16.97;;;8.87;;
9972;SDS011;5027;53.560;10.062;2023-03-01T05:38:18;18.23;;;8.83;;
9972;SDS011;5027;53.560;10.062;2023-03-01T05:40:46;17.13;;;8.63;;
9972;SDS011;5027;53.560;10.062;2023-03-01T05:43:15;18.33;;;8.23;;
9972;SDS011;5027;53.560;10.062;2023-03-01T05:45:42;15.63;;;9.13;;
9972;SDS011;5027;53.560;10.062;2023-03-01T05:48:10;15.43;;;7.90;;
9972;SDS011;5027;53.560;10.062;2023-03-01T05:50:38;10.87;;;7.60;;
9972;SDS011;5027;53.560;10.062;2023-03-01T05:55:37;15.87;;;8.00;;
9972;SDS011;5027;53.560;10.062;2023-03-01T05:58:06;12.13;;;6.10;;
9972;SDS011;5027;53.560;10.062;2023-03-01T06:00:35;10.23;;;6.43;;
9972;SDS011;5027;53.560;10.062;2023-03-01T06:03:02;13.43;;;7.60;;
9972;SDS011;5027;53.560;10.062;2023-03-01T06:05:29;14.30;;;8.17;;
9972;SDS011;5027;53.560;10.062;2023-03-01T06:07:59;14.73;;;7.40;;
9972;SDS011;5027;53.560;10.062;2023-03-01T06:10:27;11.53;;;7.17;;
9972;SDS011;5027;53.560;10.062;2023-03-01T06:12:53;16.53;;;7.13;;
9972;SDS011;5027;53.560;10.062;2023-03-01T06:15:20;15.93;;;8.30;;
9972;SDS011;5027;53.560;10.062;2023-03-01T06:17:48;13.73;;;6.37;;
9972;SDS011;5027;53.560;10.062;2023-03-01T06:20:16;11.37;;;6.27;;
9972;SDS011;5027;53.560;10.062;2023-03-01T06:22:44;14.83;;;7.93;;
9972;SDS011;5027;53.560;10.062;2023-03-01T06:25:13;12.93;;;7.17;;
9972;SDS011;5027;53.560;10.062;2023-03-01T06:27:41;10.93;;;7.63;;
9972;SDS011;5027;53.560;10.062;2023-03-01T06:30:09;13.47;;;8.73;;
9972;SDS011;5027;53.560;10.062;2023-03-01T06:32:38;17.83;;;8.57;;
9972;SDS011;5027;53.560;10.062;2023-03-01T06:35:11;13.37;;;7.43;;
9972;SDS011;5027;53.560;10.062;2023-03-01T06:37:40;18.17;;;8.10;;
9972;SDS011;5027;53.560;10.062;2023-03-01T06:40:08;17.63;;;7.30;;
9972;SDS011;5027;53.560;10.062;2023-03-01T06:42:38;12.93;;;7.30;;
9972;SDS011;5027;53.560;10.062;2023-03-01T06:45:06;13.60;;;7.23;;
9972;SDS011;5027;53.560;10.062;2023-03-01T06:47:33;11.50;;;6.87;;
9972;SDS011;5027;53.560;10.062;2023-03-01T06:50:00;14.47;;;7.63;;
9972;SDS011;5027;53.560;10.062;2023-03-01T06:52:28;15.70;;;8.03;;
9972;SDS011;5027;53.560;10.062;2023-03-01T06:54:55;18.37;;;8.67;;
9972;SDS011;5027;53.560;10.062;2023-03-01T06:57:22;19.40;;;8.70;;
9972;SDS011;5027;53.560;10.062;2023-03-01T06:59:49;15.63;;;8.60;;
9972;SDS011;5027;53.560;10.062;2023-03-01T07:02:15;15.10;;;8.20;;
9972;SDS011;5027;53.560;10.062;2023-03-01T07:04:42;20.67;;;8.30;;
9972;SDS011;5027;53.560;10.062;2023-03-01T07:07:09;17.80;;;8.57;;
9972;SDS011;5027;53.560;10.062;2023-03-01T07:09:36;13.30;;;8.07;;
9972;SDS011;5027;53.560;10.062;2023-03-01T07:12:03;15.43;;;7.57;;
9972;SDS011;5027;53.560;10.062;2023-03-01T07:14:30;12.57;;;6.30;;
9972;SDS011;5027;53.560;10.062;2023-03-01T07:16:56;13.37;;;6.67;;
9972;SDS011;5027;53.560;10.062;2023-03-01T07:19:23;12.50;;;7.00;;
9972;SDS011;5027;53.560;10.062;2023-03-01T07:21:50;10.07;;;5.53;;
9972;SDS011;5027;53.560;10.062;2023-03-01T07:24:16;8.80;;;6.63;;
9972;SDS011;5027;53.560;10.062;2023-03-01T07:26:43;12.87;;;6.90;;
9972;SDS011;5027;53.560;10.062;2023-03-01T07:29:10;14.30;;;5.93;;
9972;SDS011;5027;53.560;10.062;2023-03-01T07:31:37;12.07;;;5.93;;
9972;SDS011;5027;53.560;10.062;2023-03-01T07:34:03;14.60;;;6.50;;
9972;SDS011;5027;53.560;10.062;2023-03-01T07:36:30;12.00;;;6.43;;
9972;SDS011;5027;53.560;10.062;2023-03-01T07:38:57;10.23;;;6.20;;
9972;SDS011;5027;53.560;10.062;2023-03-01T07:41:24;14.37;;;10.50;;
9972;SDS011;5027;53.560;10.062;2023-03-01T07:43:51;10.67;;;7.63;;
9972;SDS011;5027;53.560;10.062;2023-03-01T07:46:17;9.77;;;6.13;;
9972;SDS011;5027;53.560;10.062;2023-03-01T07:48:45;13.37;;;6.43;;
9972;SDS011;5027;53.560;10.062;2023-03-01T07:51:12;10.53;;;6.47;;
9972;SDS011;5027;53.560;10.062;2023-03-01T07:53:39;10.50;;;6.80;;
9972;SDS011;5027;53.560;10.062;2023-03-01T07:58:37;11.47;;;7.33;;
9972;SDS011;5027;53.560;10.062;2023-03-01T08:01:06;10.43;;;7.20;;
9972;SDS011;5027;53.560;10.062;2023-03-01T08:03:34;11.00;;;8.40;;
9972;SDS011;5027;53.560;10.062;2023-03-01T08:06:03;12.87;;;8.60;;
9972;SDS011;5027;53.560;10.062;2023-03-01T08:08:31;12.70;;;7.73;;
9972;SDS011;5027;53.560;10.062;2023-03-01T08:10:59;11.77;;;8.30;;
9972;SDS011;5027;53.560;10.062;2023-03-01T08:13:27;12.27;;;8.83;;
9972;SDS011;5027;53.560;10.062;2023-03-01T08:16:00;10.50;;;7.93;;
9972;SDS011;5027;53.560;10.062;2023-03-01T08:18:31;12.70;;;8.33;;
9972;SDS011;5027;53.560;10.062;2023-03-01T08:21:01;11.37;;;7.90;;
9972;SDS011;5027;53.560;10.062;2023-03-01T08:23:29;10.37;;;7.10;;
9972;SDS011;5027;53.560;10.062;2023-03-01T08:26:02;10.00;;;7.60;;
9972;SDS011;5027;53.560;10.062;2023-03-01T08:28:38;14.47;;;8.13;;
9972;SDS011;5027;53.560;10.062;2023-03-01T08:31:18;14.83;;;8.83;;
9972;SDS011;5027;53.560;10.062;2023-03-01T08:33:50;17.27;;;9.23;;
9972;SDS011;5027;53.560;10.062;2023-03-01T08:36:24;11.43;;;8.63;;
9972;SDS011;5027;53.560;10.062;2023-03-01T08:38:53;13.10;;;7.77;;
9972;SDS011;5027;53.560;10.062;2023-03-01T08:41:20;9.47;;;6.83;;
9972;SDS011;5027;53.560;10.062;2023-03-01T08:43:47;16.10;;;7.90;;
9972;SDS011;5027;53.560;10.062;2023-03-01T08:46:13;17.47;;;8.00;;
9972;SDS011;5027;53.560;10.062;2023-03-01T08:48:40;11.70;;;7.43;;
9972;SDS011;5027;53.560;10.062;2023-03-01T08:53:37;11.47;;;8.07;;
9972;SDS011;5027;53.560;10.062;2023-03-01T08:56:04;9.20;;;7.00;;
9972;SDS011;5027;53.560;10.062;2023-03-01T08:58:31;11.73;;;8.07;;
9972;SDS011;5027;53.560;10.062;2023-03-01T09:00:58;11.73;;;7.63;;
9972;SDS011;5027;53.560;10.062;2023-03-01T09:03:26;8.77;;;7.50;;
9972;SDS011;5027;53.560;10.062;2023-03-01T09:05:53;13.93;;;8.23;;
9972;SDS011;5027;53.560;10.062;2023-03-01T09:08:26;11.20;;;7.80;;
9972;SDS011;5027;53.560;10.062;2023-03-01T09:10:53;10.57;;;8.03;;
9972;SDS011;5027;53.560;10.062;2023-03-01T09:13:19;12.67;;;9.27;;
9972;SDS011;5027;53.560;10.062;2023-03-01T09:15:46;10.57;;;9.30;;
9972;SDS011;5027;53.560;10.062;2023-03-01T09:18:12;13.70;;;9.60;;
9972;SDS011;5027;53.560;10.062;2023-03-01T09:20:39;13.43;;;9.70;;
9972;SDS011;5027;53.560;10.062;2023-03-01T09:23:06;13.40;;;10.17;;
9972;SDS011;5027;53.560;10.062;2023-03-01T09:25:33;12.00;;;9.03;;
9972;SDS011;5027;53.560;10.062;2023-03-01T09:28:00;38.40;;;11.60;;
9972;SDS011;5027;53.560;10.062;2023-03-01T09:30:27;17.47;;;10.20;;
9972;SDS011;5027;53.560;10.062;2023-03-01T09:32:55;14.47;;;10.07;;
9972;SDS011;5027;53.560;10.062;2023-03-01T09:35:22;11.63;;;9.67;;
9972;SDS011;5027;53.560;10.062;2023-03-01T09:37:49;15.30;;;9.27;;
9972;SDS011;5027;53.560;10.062;2023-03-01T09:40:18;13.13;;;9.87;;
9972;SDS011;5027;53.560;10.062;2023-03-01T09:45:35;15.90;;;10.10;;
9972;SDS011;5027;53.560;10.062;2023-03-01T09:48:09;11.50;;;9.33;;
9972;SDS011;5027;53.560;10.062;2023-03-01T09:50:42;13.50;;;10.10;;
9972;SDS011;5027;53.560;10.062;2023-03-01T09:53:16;16.20;;;9.43;;
9972;SDS011;5027;53.560;10.062;2023-03-01T09:55:48;12.47;;;10.10;;
9972;SDS011;5027;53.560;10.062;2023-03-01T09:58:37;14.00;;;10.00;;
9972;SDS011;5027;53.560;10.062;2023-03-01T10:01:20;12.53;;;8.10;;
9972;SDS011;5027;53.560;10.062;2023-03-01T10:09:58;12.17;;;9.73;;
9972;SDS011;5027;53.560;10.062;2023-03-01T10:12:27;10.83;;;9.73;;
9972;SDS011;5027;53.560;10.062;2023-03-01T10:15:05;11.47;;;9.50;;
9972;SDS011;5027;53.560;10.062;2023-03-01T10:18:36;10.20;;;8.77;;
9972;SDS011;5027;53.560;10.062;2023-03-01T10:20:48;11.10;;;9.90;;
9972;SDS011;5027;53.560;10.062;2023-03-01T10:23:27;8.23;;;7.43;;
9972;SDS011;5027;53.560;10.062;2023-03-01T10:26:12;8.70;;;7.03;;
9972;SDS011;5027;53.560;10.062;2023-03-01T10:29:09;17.37;;;9.43;;
9972;SDS011;5027;53.560;10.062;2023-03-01T10:31:44;10.53;;;8.27;;
9972;SDS011;5027;53.560;10.062;2023-03-01T10:34:22;2.87;;;2.53;;
9972;SDS011;5027;53.560;10.062;2023-03-01T10:36:56;2.40;;;2.20;;
9972;SDS011;5027;53.560;10.062;2023-03-01T10:39:27;2.50;;;2.30;;
9972;SDS011;5027;53.560;10.062;2023-03-01T10:45:02;4.57;;;3.10;;
9972;SDS011;5027;53.560;10.062;2023-03-01T10:47:27;2.80;;;2.50;;
9972;SDS011;5027;53.560;10.062;2023-03-01T10:49:56;2.33;;;2.13;;
9972;SDS011;5027;53.560;10.062;2023-03-01T10:52:29;2.73;;;2.53;;
9972;SDS011;5027;53.560;10.062;2023-03-01T10:57:42;4.63;;;3.70;;
9972;SDS011;5027;53.560;10.062;2023-03-01T11:02:47;7.27;;;4.00;;
9972;SDS011;5027;53.560;10.062;2023-03-01T11:05:24;9.67;;;8.40;;
9972;SDS011;5027;53.560;10.062;2023-03-01T11:07:53;8.13;;;6.83;;
9972;SDS011;5027;53.560;10.062;2023-03-01T11:10:27;12.93;;;9.00;;
9972;SDS011;5027;53.560;10.062;2023-03-01T11:13:16;12.67;;;9.73;;
9972;SDS011;5027;53.560;10.062;2023-03-01T11:15:43;10.80;;;8.03;;
9972;SDS011;5027;53.560;10.062;2023-03-01T11:18:29;8.90;;;6.90;;
9972;SDS011;5027;53.560;10.062;2023-03-01T11:21:12;3.30;;;2.50;;
9972;SDS011;5027;53.560;10.062;2023-03-01T11:23:39;2.30;;;2.10;;
9972;SDS011;5027;53.560;10.062;2023-03-01T11:26:08;10.10;;;8.10;;
9972;SDS011;5027;53.560;10.062;2023-03-01T11:28:38;9.73;;;8.23;;
9972;SDS011;5027;53.560;10.062;2023-03-01T11:31:08;8.73;;;7.83;;
9972;SDS011;5027;53.560;10.062;2023-03-01T11:33:43;4.13;;;3.53;;
9972;SDS011;5027;53.560;10.062;2023-03-01T11:38:56;3.37;;;3.07;;
9972;SDS011;5027;53.560;10.062;2023-03-01T11:41:30;11.00;;;7.80;;
9972;SDS011;5027;53.560;10.062;2023-03-01T11:44:01;9.20;;;7.33;;
9972;SDS011;5027;53.560;10.062;2023-03-01T11:46:37;10.07;;;8.17;;
9972;SDS011;5027;53.560;10.062;2023-03-01T11:52:21;10.73;;;7.93;;
9972;SDS011;5027;53.560;10.062;2023-03-01T11:55:04;9.03;;;6.80;;
9972;SDS011;5027;53.560;10.062;2023-03-01T11:57:51;9.03;;;7.43;;
9972;SDS011;5027;53.560;10.062;2023-03-01T12:03:17;2.63;;;2.43;;
9972;SDS011;5027;53.560;10.062;2023-03-01T12:06:08;6.53;;;5.20;;
9972;SDS011;5027;53.560;10.062;2023-03-01T12:08:43;6.40;;;4.80;;
9972;SDS011;5027;53.560;10.062;2023-03-01T12:11:33;5.60;;;5.10;;
9972;SDS011;5027;53.560;10.062;2023-03-01T12:16:44;3.10;;;2.80;;
9972;SDS011;5027;53.560;10.062;2023-03-01T12:19:26;5.63;;;4.63;;
9972;SDS011;5027;53.560;10.062;2023-03-01T12:35:50;7.67;;;6.87;;
9972;SDS011;5027;53.560;10.062;2023-03-01T12:38:50;5.23;;;4.57;;
9972;SDS011;5027;53.560;10.062;2023-03-01T12:41:46;7.17;;;6.20;;
9972;SDS011;5027;53.560;10.062;2023-03-01T12:44:31;14.20;;;9.53;;
9972;SDS011;5027;53.560;10.062;2023-03-01T12:50:17;8.00;;;5.53;;
9972;SDS011;5027;53.560;10.062;2023-03-01T12:52:48;3.10;;;2.80;;
9972;SDS011;5027;53.560;10.062;2023-03-01T12:55:29;2.27;;;2.07;;
9972;SDS011;5027;53.560;10.062;2023-03-01T13:01:13;11.33;;;5.30;;
9972;SDS011;5027;53.560;10.062;2023-03-01T13:17:49;4.13;;;2.07;;
9972;SDS011;5027;53.560;10.062;2023-03-01T13:20:25;7.40;;;6.63;;
9972;SDS011;5027;53.560;10.062;2023-03-01T13:31:08;3.23;;;2.67;;
9972;SDS011;5027;53.560;10.062;2023-03-01T13:33:52;7.37;;;6.17;;
9972;SDS011;5027;53.560;10.062;2023-03-01T13:38:57;8.13;;;6.77;;
9972;SDS011;5027;53.560;10.062;2023-03-01T13:44:20;7.73;;;6.40;;
9972;SDS011;5027;53.560;10.062;2023-03-01T13:52:44;2.90;;;2.10;;
9972;SDS011;5027;53.560;10.062;2023-03-01T13:57:47;7.77;;;6.03;;
9972;SDS011;5027;53.560;10.062;2023-03-01T14:00:26;4.30;;;2.90;;
9972;SDS011;5027;53.560;10.062;2023-03-01T14:03:02;6.07;;;2.17;;
9972;SDS011;5027;53.560;10.062;2023-03-01T14:05:32;10.80;;;6.20;;
9972;SDS011;5027;53.560;10.062;2023-03-01T14:07:59;8.27;;;6.33;;
9972;SDS011;5027;53.560;10.062;2023-03-01T14:10:28;6.93;;;5.77;;
9972;SDS011;5027;53.560;10.062;2023-03-01T14:13:20;4.10;;;2.17;;
9972;SDS011;5027;53.560;10.062;2023-03-01T14:16:07;5.87;;;4.20;;
9972;SDS011;5027;53.560;10.062;2023-03-01T14:19:09;5.80;;;5.20;;
9972;SDS011;5027;53.560;10.062;2023-03-01T14:24:57;5.37;;;4.87;;
9972;SDS011;5027;53.560;10.062;2023-03-01T14:27:28;6.90;;;4.27;;
9972;SDS011;5027;53.560;10.062;2023-03-01T14:30:02;10.67;;;3.10;;
9972;SDS011;5027;53.560;10.062;2023-03-01T14:32:36;13.43;;;3.77;;
9972;SDS011;5027;53.560;10.062;2023-03-01T14:35:19;7.73;;;5.37;;
9972;SDS011;5027;53.560;10.062;2023-03-01T14:37:57;7.03;;;5.57;;
9972;SDS011;5027;53.560;10.062;2023-03-01T14:40:28;5.97;;;5.33;;
9972;SDS011;5027;53.560;10.062;2023-03-01T14:42:57;7.50;;;4.87;;
9972;SDS011;5027;53.560;10.062;2023-03-01T14:45:27;8.10;;;4.97;;
9972;SDS011;5027;53.560;10.062;2023-03-01T14:47:58;7.03;;;3.80;;
9972;SDS011;5027;53.560;10.062;2023-03-01T14:50:28;5.27;;;4.73;;
9972;SDS011;5027;53.560;10.062;2023-03-01T14:53:01;8.27;;;4.97;;
9972;SDS011;5027;53.560;10.062;2023-03-01T14:55:37;7.30;;;4.80;;
9972;SDS011;5027;53.560;10.062;2023-03-01T14:58:13;6.47;;;4.57;;
9972;SDS011;5027;53.560;10.062;2023-03-01T15:00:48;6.80;;;4.53;;
9972;SDS011;5027;53.560;10.062;2023-03-01T15:03:20;8.23;;;5.10;;
9972;SDS011;5027;53.560;10.062;2023-03-01T15:05:57;5.47;;;4.93;;
9972;SDS011;5027;53.560;10.062;2023-03-01T15:08:25;15.40;;;9.97;;
9972;SDS011;5027;53.560;10.062;2023-03-01T15:13:52;9.80;;;4.67;;
9972;SDS011;5027;53.560;10.062;2023-03-01T15:16:23;5.73;;;4.90;;
9972;SDS011;5027;53.560;10.062;2023-03-01T15:18:53;6.20;;;5.63;;
9972;SDS011;5027;53.560;10.062;2023-03-01T15:21:26;11.90;;;6.13;;
9972;SDS011;5027;53.560;10.062;2023-03-01T15:24:13;6.17;;;4.70;;
9972;SDS011;5027;53.560;10.062;2023-03-01T15:26:52;5.43;;;4.93;;
9972;SDS011;5027;53.560;10.062;2023-03-01T15:29:28;6.33;;;3.17;;
9972;SDS011;5027;53.560;10.062;2023-03-01T15:32:01;6.97;;;5.37;;
9972;SDS011;5027;53.560;10.062;2023-03-01T15:34:35;8.13;;;7.03;;
9972;SDS011;5027;53.560;10.062;2023-03-01T15:37:04;5.70;;;4.60;;
9972;SDS011;5027;53.560;10.062;2023-03-01T15:39:35;5.17;;;4.10;;
9972;SDS011;5027;53.560;10.062;2023-03-01T15:47:39;4.13;;;3.40;;
9972;SDS011;5027;53.560;10.062;2023-03-01T15:50:23;5.17;;;4.60;;
9972;SDS011;5027;53.560;10.062;2023-03-01T15:52:52;5.43;;;3.90;;
9972;SDS011;5027;53.560;10.062;2023-03-01T15:55:21;5.73;;;3.73;;
9972;SDS011;5027;53.560;10.062;2023-03-01T15:58:03;5.63;;;4.93;;
9972;SDS011;5027;53.560;10.062;2023-03-01T16:00:35;6.53;;;5.40;;
9972;SDS011;5027;53.560;10.062;2023-03-01T16:03:01;5.77;;;5.00;;
9972;SDS011;5027;53.560;10.062;2023-03-01T16:05:30;5.70;;;4.87;;
9972;SDS011;5027;53.560;10.062;2023-03-01T16:07:58;5.73;;;4.87;;
9972;SDS011;5027;53.560;10.062;2023-03-01T16:10:26;5.60;;;5.00;;
9972;SDS011;5027;53.560;10.062;2023-03-01T16:12:54;5.33;;;4.90;;
9972;SDS011;5027;53.560;10.062;2023-03-01T16:15:31;5.77;;;5.13;;
9972;SDS011;5027;53.560;10.062;2023-03-01T16:18:00;12.90;;;9.73;;
9972;SDS011;5027;53.560;10.062;2023-03-01T16:20:27;7.23;;;5.53;;
9972;SDS011;5027;53.560;10.062;2023-03-01T16:22:59;9.00;;;6.60;;
9972;SDS011;5027;53.560;10.062;2023-03-01T16:25:27;12.83;;;6.33;;
9972;SDS011;5027;53.560;10.062;2023-03-01T16:27:54;9.13;;;8.00;;
9972;SDS011;5027;53.560;10.062;2023-03-01T16:30:22;7.07;;;6.33;;
9972;SDS011;5027;53.560;10.062;2023-03-01T16:32:49;8.90;;;6.93;;
9972;SDS011;5027;53.560;10.062;2023-03-01T16:35:18;8.80;;;7.40;;
9972;SDS011;5027;53.560;10.062;2023-03-01T16:37:46;10.73;;;8.37;;
9972;SDS011;5027;53.560;10.062;2023-03-01T16:40:25;11.40;;;7.97;;
9972;SDS011;5027;53.560;10.062;2023-03-01T16:42:54;9.23;;;8.23;;
9972;SDS011;5027;53.560;10.062;2023-03-01T16:45:25;13.33;;;8.17;;
9972;SDS011;5027;53.560;10.062;2023-03-01T16:47:54;10.10;;;8.30;;
9972;SDS011;5027;53.560;10.062;2023-03-01T16:50:21;11.17;;;8.90;;
9972;SDS011;5027;53.560;10.062;2023-03-01T16:52:48;10.40;;;9.30;;
9972;SDS011;5027;53.560;10.062;2023-03-01T16:55:15;12.27;;;9.77;;
9972;SDS011;5027;53.560;10.062;2023-03-01T16:57:42;11.73;;;9.80;;
9972;SDS011;5027;53.560;10.062;2023-03-01T17:00:10;12.50;;;10.77;;
9972;SDS011;5027;53.560;10.062;2023-03-01T17:02:39;11.80;;;10.20;;
9972;SDS011;5027;53.560;10.062;2023-03-01T17:05:07;11.90;;;10.70;;
9972;SDS011;5027;53.560;10.062;2023-03-01T17:07:35;11.77;;;10.53;;